Time;durP1;ratioP1;P1;durP2;ratioP2;P2;SDS_P1;SDS_P2;PMS_P1;PMS_P2;Temp;Humidity;BMP_temperature;BMP_pressure;BME280_temperature;BME280_humidity;BME280_pressure;Samples;Min_cycle;Max_cycle;Signal;HPM_P1;HPM_P2
2024/01/04 00:01:03;;;;;;;1.77;0.77;;;7.30;99.90;;;;;;8301581;28;20192;-80
2024/01/04 00:05:04;;;;;;;1.67;0.90;;;7.40;99.90;;;;;;8288609;28;20186;-79
2024/01/04 00:09:05;;;;;;;2.20;0.97;;;7.50;99.90;;;;;;8304503;28;20172;-79
2024/01/04 00:13:09;;;;;;;1.17;0.70;;;7.60;99.90;;;;;;8250919;28;20214;-79
2024/01/04 00:17:10;;;;;;;1.47;0.83;;;7.70;99.90;;;;;;8251587;28;20202;-79
2024/01/04 00:21:13;;;;;;;1.17;0.60;;;7.90;99.90;;;;;;8262642;28;20192;-79
2024/01/04 00:25:14;;;;;;;1.17;0.60;;;7.90;99.90;;;;;;8246558;28;20283;-79
2024/01/04 00:29:15;;;;;;;1.53;0.70;;;8.00;99.90;;;;;;8248868;28;20199;-79
2024/01/04 00:33:15;;;;;;;1.13;0.60;;;8.10;99.90;;;;;;8261384;28;20222;-80
2024/01/04 00:37:16;;;;;;;3.07;0.70;;;8.20;99.90;;;;;;8241503;28;20214;-80
2024/01/04 00:41:17;;;;;;;0.97;0.60;;;8.30;99.90;;;;;;8259645;28;20187;-81
2024/01/04 00:45:18;;;;;;;1.97;0.70;;;8.40;99.90;;;;;;8261204;28;20746;-80
2024/01/04 00:49:20;;;;;;;1.77;0.90;;;8.40;99.90;;;;;;8258216;28;20219;-80
2024/01/04 00:53:21;;;;;;;1.67;0.90;;;8.40;99.90;;;;;;8250877;28;20330;-80
2024/01/04 00:57:22;;;;;;;2.67;1.00;;;8.50;99.90;;;;;;8246124;28;20192;-80
2024/01/04 01:01:23;;;;;;;1.23;0.80;;;8.50;99.90;;;;;;8238723;28;20230;-80
2024/01/04 01:05:24;;;;;;;1.23;0.70;;;8.50;99.90;;;;;;8235807;28;20216;-81
2024/01/04 01:09:25;;;;;;;1.53;0.90;;;8.50;99.90;;;;;;8239439;28;20198;-80
2024/01/04 01:13:25;;;;;;;1.87;1.00;;;8.50;99.90;;;;;;8237153;28;20207;-80
2024/01/04 01:17:26;;;;;;;2.20;0.87;;;8.50;99.90;;;;;;8240150;28;20210;-80
2024/01/04 01:21:27;;;;;;;1.40;0.80;;;8.50;99.90;;;;;;8246426;28;20180;-80
2024/01/04 01:25:28;;;;;;;3.27;0.87;;;8.50;99.90;;;;;;8238861;28;20215;-80
2024/01/04 01:29:29;;;;;;;2.03;0.70;;;8.50;99.90;;;;;;8239166;28;20196;-80
2024/01/04 01:33:30;;;;;;;2.77;0.80;;;8.50;99.90;;;;;;8233298;28;20203;-81
2024/01/04 01:37:30;;;;;;;1.07;0.80;;;8.50;99.90;;;;;;8239859;28;20722;-78
2024/01/04 01:41:31;;;;;;;1.70;0.80;;;8.50;99.90;;;;;;8254938;28;20203;-79
2024/01/04 01:45:32;;;;;;;2.67;1.10;;;8.50;99.90;;;;;;8243390;28;20196;-79
2024/01/04 01:49:33;;;;;;;1.93;0.97;;;8.40;99.90;;;;;;8240212;28;20317;-79
2024/01/04 01:53:34;;;;;;;1.30;0.70;;;8.40;1.00;;;;;;8242649;28;20530;-79
2024/01/04 01:57:36;;;;;;;2.10;0.80;;;8.30;1.00;;;;;;8252764;28;20198;-79
2024/01/04 02:01:36;;;;;;;1.57;0.63;;;8.30;1.00;;;;;;8241428;28;20322;-79
2024/01/04 02:05:37;;;;;;;1.17;0.60;;;8.20;1.00;;;;;;8233818;28;20379;-79
2024/01/04 02:09:38;;;;;;;2.60;0.70;;;8.20;1.00;;;;;;8236313;28;20191;-79
2024/01/04 02:13:39;;;;;;;3.73;0.90;;;8.10;1.00;;;;;;8252616;28;20246;-79
2024/01/04 02:17:40;;;;;;;1.93;0.63;;;8.10;1.00;;;;;;8235379;28;20346;-79
2024/01/04 02:21:41;;;;;;;0.73;0.43;;;8.00;1.00;;;;;;8234639;28;20188;-79
2024/01/04 02:25:43;;;;;;;1.83;0.73;;;7.90;1.00;;;;;;8236231;28;20232;-79
2024/01/04 02:29:44;;;;;;;0.80;0.50;;;7.90;1.00;;;;;;8238460;28;20474;-78
2024/01/04 02:33:45;;;;;;;1.80;0.70;;;7.90;1.00;;;;;;8241799;28;20432;-79
2024/01/04 02:37:45;;;;;;;2.30;0.73;;;8.00;1.00;;;;;;8234930;28;20185;-79
2024/01/04 02:41:47;;;;;;;2.23;0.70;;;8.00;1.00;;;;;;8270052;28;20195;-78
2024/01/04 02:45:49;;;;;;;2.00;0.70;;;8.00;23.90;;;;;;8271628;28;20179;-80
2024/01/04 02:49:50;;;;;;;1.00;0.70;;;7.90;99.90;;;;;;8275660;28;20220;-81
2024/01/04 02:53:50;;;;;;;1.13;0.60;;;7.90;99.90;;;;;;8282586;28;20204;-80
2024/01/04 02:57:51;;;;;;;0.93;0.80;;;7.90;99.90;;;;;;8275546;28;20176;-80
2024/01/04 03:01:52;;;;;;;0.97;0.60;;;8.00;99.90;;;;;;8267427;28;20210;-80
2024/01/04 03:05:56;;;;;;;1.33;0.60;;;7.90;99.90;;;;;;8241244;28;20684;-80
2024/01/04 03:10:03;;;;;;;1.13;0.63;;;7.90;99.90;;;;;;8247075;28;20188;-80
2024/01/04 03:14:03;;;;;;;0.97;0.60;;;7.80;1.00;;;;;;8236208;28;20219;-80
2024/01/04 03:18:04;;;;;;;1.17;0.60;;;7.80;1.00;;;;;;8256278;28;20218;-80
2024/01/04 03:22:05;;;;;;;1.10;0.70;;;7.80;1.00;;;;;;8254779;28;20192;-80
2024/01/04 03:26:06;;;;;;;1.30;0.47;;;7.80;99.90;;;;;;8238066;28;20192;-80
2024/01/04 03:30:07;;;;;;;0.93;0.60;;;7.80;99.90;;;;;;8257419;28;20211;-81
2024/01/04 03:34:08;;;;;;;1.27;0.50;;;7.80;99.90;;;;;;8231154;28;20273;-81
2024/01/04 03:38:09;;;;;;;2.10;0.50;;;7.70;99.90;;;;;;8234170;28;20497;-80
2024/01/04 03:42:10;;;;;;;1.33;0.50;;;7.70;1.00;;;;;;8231309;28;20251;-80
2024/01/04 03:46:10;;;;;;;0.70;0.33;;;7.60;1.00;;;;;;8230436;28;20192;-80
2024/01/04 03:50:11;;;;;;;0.93;0.60;;;7.60;95.60;;;;;;8251818;28;20234;-81
2024/01/04 03:54:12;;;;;;;0.40;0.40;;;7.50;99.90;;;;;;8250087;28;20226;-80
2024/01/04 03:58:13;;;;;;;1.63;0.50;;;7.40;99.90;;;;;;8235081;28;20192;-79
2024/01/04 04:02:14;;;;;;;0.80;0.50;;;7.40;99.90;;;;;;8230379;28;20291;-79
2024/01/04 04:06:20;;;;;;;1.10;0.63;;;7.40;99.90;;;;;;8239971;28;20200;-79
2024/01/04 04:10:22;;;;;;;0.83;0.40;;;7.50;99.90;;;;;;8252737;28;20216;-79
2024/01/04 04:14:23;;;;;;;0.97;0.40;;;7.50;1.00;;;;;;8237647;28;20211;-79
2024/01/04 04:18:23;;;;;;;0.87;0.40;;;7.50;1.00;;;;;;8238889;28;20215;-79
2024/01/04 04:22:24;;;;;;;1.40;0.80;;;7.50;1.00;;;;;;8237616;28;20192;-79
2024/01/04 04:26:25;;;;;;;2.00;0.77;;;7.50;1.00;;;;;;8231783;28;20211;-78
2024/01/04 04:30:27;;;;;;;1.50;0.80;;;7.50;22.90;;;;;;8230520;28;20196;-79
2024/01/04 04:34:30;;;;;;;1.43;0.90;;;7.50;99.90;;;;;;8236361;28;20278;-79
2024/01/04 04:38:31;;;;;;;1.33;0.80;;;7.50;99.90;;;;;;8238882;28;20180;-78
2024/01/04 04:42:35;;;;;;;2.57;0.73;;;7.50;99.90;;;;;;8242892;28;20254;-79
2024/01/04 04:46:36;;;;;;;1.40;0.70;;;7.40;99.90;;;;;;8241541;28;20200;-79
2024/01/04 04:50:37;;;;;;;2.00;0.60;;;7.40;99.90;;;;;;8252535;28;20282;-79
2024/01/04 04:54:38;;;;;;;1.60;0.80;;;7.40;99.90;;;;;;8257704;28;20215;-79
2024/01/04 04:58:38;;;;;;;1.30;0.70;;;7.40;99.90;;;;;;8255792;28;20195;-79
2024/01/04 05:02:39;;;;;;;1.80;0.53;;;7.40;43.50;;;;;;8253179;28;20283;-79
2024/01/04 05:06:41;;;;;;;1.60;0.80;;;7.40;99.90;;;;;;8223767;28;20211;-79
2024/01/04 05:10:42;;;;;;;1.20;0.70;;;7.40;99.70;;;;;;8256240;28;20195;-79
2024/01/04 05:14:43;;;;;;;1.70;0.80;;;7.40;53.20;;;;;;8255510;28;20211;-80
2024/01/04 05:18:43;;;;;;;2.10;0.80;;;7.40;1.00;;;;;;8241256;28;20211;-80
2024/01/04 05:22:44;;;;;;;4.77;0.80;;;7.40;1.00;;;;;;8240774;28;20251;-78
2024/01/04 05:26:45;;;;;;;1.67;0.73;;;7.40;1.00;;;;;;8258631;28;20188;-79
2024/01/04 05:30:46;;;;;;;2.00;0.90;;;7.40;99.90;;;;;;8236806;28;20259;-78
2024/01/04 05:34:47;;;;;;;2.43;1.03;;;7.50;1.00;;;;;;8243618;28;20224;-77
2024/01/04 05:38:50;;;;;;;1.50;0.90;;;7.40;1.00;;;;;;8248792;28;20180;-78
2024/01/04 05:42:57;;;;;;;2.43;0.93;;;7.40;99.90;;;;;;8262170;28;20164;-80
2024/01/04 05:46:58;;;;;;;1.73;1.00;;;7.40;99.90;;;;;;8266165;28;20184;-80
2024/01/04 05:50:58;;;;;;;1.30;0.77;;;7.40;99.90;;;;;;8279593;28;20179;-79
2024/01/04 05:54:59;;;;;;;2.03;1.00;;;7.40;99.90;;;;;;8241774;28;20208;-78
2024/01/04 05:59:00;;;;;;;1.47;0.73;;;7.50;99.90;;;;;;8242710;28;20184;-78
2024/01/04 06:03:01;;;;;;;1.27;0.70;;;7.50;1.00;;;;;;8252731;28;20196;-79
2024/01/04 06:07:02;;;;;;;3.57;1.00;;;7.40;1.00;;;;;;8259718;28;20184;-79
2024/01/04 06:11:06;;;;;;;1.67;0.60;;;7.40;66.10;;;;;;8240525;28;20222;-78
2024/01/04 06:15:07;;;;;;;3.33;0.90;;;7.30;99.90;;;;;;8238215;28;20392;-78
2024/01/04 06:19:08;;;;;;;0.93;0.63;;;7.30;1.00;;;;;;8239595;28;20254;-79
2024/01/04 06:23:08;;;;;;;2.83;0.90;;;7.30;41.50;;;;;;8237835;28;20188;-79
2024/01/04 06:27:09;;;;;;;1.33;0.87;;;7.20;99.90;;;;;;8256464;28;20177;-79
2024/01/04 06:31:10;;;;;;;1.33;0.67;;;7.20;99.90;;;;;;8238269;28;20188;-79
2024/01/04 06:35:11;;;;;;;1.00;0.60;;;7.20;99.90;;;;;;8252170;28;20302;-78
2024/01/04 06:39:12;;;;;;;3.37;1.17;;;7.20;99.90;;;;;;8236426;28;20192;-78
2024/01/04 06:43:14;;;;;;;1.40;0.70;;;7.30;99.90;;;;;;8235433;28;20213;-78
2024/01/04 06:47:16;;;;;;;2.47;0.80;;;7.20;99.90;;;;;;8232306;28;20937;-79
2024/01/04 06:51:17;;;;;;;1.77;0.90;;;7.20;1.00;;;;;;8238430;28;20187;-78
2024/01/04 06:55:18;;;;;;;2.67;1.03;;;7.20;1.00;;;;;;8237988;28;20483;-78
2024/01/04 06:59:19;;;;;;;1.37;0.97;;;7.20;99.90;;;;;;8236305;28;20191;-80
2024/01/04 07:03:20;;;;;;;2.07;0.90;;;7.20;99.90;;;;;;8253730;28;20192;-78
2024/01/04 07:07:20;;;;;;;1.50;0.80;;;7.10;99.90;;;;;;8231507;28;20523;-79
2024/01/04 07:11:22;;;;;;;2.33;0.70;;;7.10;99.90;;;;;;8231904;28;20238;-79
2024/01/04 07:15:23;;;;;;;1.00;0.53;;;7.10;99.90;;;;;;8253767;28;20314;-78
2024/01/04 07:19:24;;;;;;;0.80;0.57;;;7.10;1.00;;;;;;8235812;28;20235;-77
2024/01/04 07:23:24;;;;;;;0.67;0.50;;;7.10;40.50;;;;;;8233312;28;20275;-78
2024/01/04 07:27:27;;;;;;;1.37;0.40;;;7.10;35.80;;;;;;8238147;28;20717;-79
2024/01/04 07:31:28;;;;;;;1.07;0.60;;;7.00;96.80;;;;;;8225055;28;20187;-79
2024/01/04 07:35:29;;;;;;;1.10;0.60;;;7.00;99.90;;;;;;8229072;28;20278;-79
2024/01/04 07:39:30;;;;;;;1.67;0.70;;;7.00;1.00;;;;;;8246817;28;20232;-79
2024/01/04 07:43:31;;;;;;;1.10;0.70;;;7.00;1.00;;;;;;8232533;28;20183;-79
2024/01/04 07:47:32;;;;;;;1.37;0.67;;;7.00;1.00;;;;;;8233378;28;20183;-79
2024/01/04 07:51:33;;;;;;;1.87;0.90;;;7.10;1.00;;;;;;8233839;28;20192;-79
2024/01/04 07:55:34;;;;;;;1.40;0.60;;;7.10;1.00;;;;;;8234509;28;20272;-79
2024/01/04 07:59:35;;;;;;;0.97;0.70;;;7.20;99.90;;;;;;8232994;28;20191;-78
2024/01/04 08:03:35;;;;;;;0.67;0.57;;;7.20;99.90;;;;;;8232474;28;20211;-80
2024/01/04 08:07:36;;;;;;;0.67;0.37;;;7.20;99.90;;;;;;8239386;28;20204;-79
2024/01/04 08:11:38;;;;;;;0.70;0.60;;;7.20;99.90;;;;;;8258064;28;20187;-79
2024/01/04 08:15:39;;;;;;;0.60;0.53;;;7.20;1.00;;;;;;8243170;28;20226;-78
2024/01/04 08:19:39;;;;;;;1.43;0.50;;;7.20;1.00;;;;;;8241370;28;20194;-79
2024/01/04 08:23:43;;;;;;;2.30;0.40;;;7.20;2.50;;;;;;8259137;28;20211;-79
2024/01/04 08:27:50;;;;;;;0.50;0.37;;;7.30;1.00;;;;;;8275800;28;20363;-80
2024/01/04 08:31:51;;;;;;;1.00;0.40;;;7.30;53.40;;;;;;8274072;28;20180;-78
2024/01/04 08:35:52;;;;;;;0.77;0.40;;;7.20;1.00;;;;;;8258001;28;20214;-78
2024/01/04 08:39:53;;;;;;;0.40;0.30;;;7.20;99.90;;;;;;8276384;28;20196;-81
2024/01/04 08:43:56;;;;;;;0.40;0.30;;;7.10;99.90;;;;;;8268044;28;20206;-82
2024/01/04 08:47:56;;;;;;;0.60;0.40;;;7.10;99.90;;;;;;8257599;28;20193;-82
2024/01/04 08:51:57;;;;;;;0.57;0.30;;;7.00;1.00;;;;;;8261828;28;20847;-81
2024/01/04 08:55:58;;;;;;;0.57;0.30;;;7.00;99.90;;;;;;8263148;28;20211;-81
2024/01/04 08:59:59;;;;;;;1.47;0.60;;;7.10;99.90;;;;;;8260455;28;20490;-81
2024/01/04 09:04:02;;;;;;;0.73;0.40;;;7.20;1.00;;;;;;8239954;28;20192;-81
2024/01/04 09:08:05;;;;;;;2.00;0.60;;;7.20;1.00;;;;;;8252366;28;20197;-81
2024/01/04 09:12:06;;;;;;;0.40;0.33;;;7.30;99.90;;;;;;8239289;28;20295;-80
2024/01/04 09:16:07;;;;;;;1.30;0.47;;;7.30;99.90;;;;;;8263965;28;20245;-81
2024/01/04 09:20:08;;;;;;;1.17;0.43;;;7.30;99.90;;;;;;8257537;28;20184;-80
2024/01/04 09:24:11;;;;;;;0.57;0.40;;;7.30;25.10;;;;;;8255544;28;20208;-81
2024/01/04 09:28:12;;;;;;;0.63;0.50;;;7.30;96.40;;;;;;8238884;28;20199;-81
2024/01/04 09:32:13;;;;;;;1.83;0.60;;;7.60;99.90;;;;;;8241841;28;20184;-81
2024/01/04 09:36:14;;;;;;;0.93;0.67;;;7.90;1.00;;;;;;8236636;28;20554;-81
2024/01/04 09:40:15;;;;;;;1.20;0.50;;;8.10;99.90;;;;;;8243991;28;20192;-80
2024/01/04 09:44:15;;;;;;;0.73;0.50;;;8.10;99.90;;;;;;8257386;28;20191;-81
2024/01/04 09:48:22;;;;;;;0.60;0.50;;;8.10;99.90;;;;;;8242869;28;20206;-79
2024/01/04 09:52:24;;;;;;;3.07;0.70;;;8.00;99.90;;;;;;8233732;28;20327;-78
2024/01/04 09:56:29;;;;;;;0.80;0.60;;;8.10;99.90;;;;;;8256507;28;20793;-78
2024/01/04 10:00:30;;;;;;;1.83;0.70;;;8.20;99.90;;;;;;8255289;28;20192;-78
2024/01/04 10:04:31;;;;;;;1.50;0.60;;;8.40;99.90;;;;;;8261703;28;20259;-78
2024/01/04 10:08:37;;;;;;;1.33;0.60;;;8.50;99.90;;;;;;8234955;28;20196;-79
2024/01/04 10:12:40;;;;;;;1.30;0.80;;;8.50;99.90;;;;;;8234204;28;20196;-78
2024/01/04 10:16:42;;;;;;;2.47;1.00;;;8.50;99.90;;;;;;8241480;28;20216;-79
2024/01/04 10:21:03;;;;;;;1.27;0.57;;;8.50;99.90;;;;;;8241403;28;20188;-79
2024/01/04 10:25:12;;;;;;;3.23;1.50;;;8.40;97.60;;;;;;8240261;28;20196;-77
2024/01/04 10:29:19;;;;;;;1.73;0.67;;;8.50;92.10;;;;;;8234059;28;20219;-78
2024/01/04 10:33:20;;;;;;;6.30;5.50;;;8.50;75.80;;;;;;8258640;28;20188;-78
2024/01/04 10:37:22;;;;;;;2.47;2.23;;;8.40;93.80;;;;;;8238037;28;20195;-77
2024/01/04 10:41:23;;;;;;;1.43;1.13;;;8.30;96.40;;;;;;8235400;28;20265;-78
2024/01/04 10:45:27;;;;;;;2.03;0.80;;;8.40;72.90;;;;;;8234845;28;20311;-77
2024/01/04 10:49:28;;;;;;;2.57;2.37;;;8.20;51.90;;;;;;8238520;28;20188;-78
2024/01/04 10:53:34;;;;;;;2.97;2.20;;;8.30;33.10;;;;;;8234146;28;20207;-78
2024/01/04 10:57:36;;;;;;;4.70;3.70;;;8.50;14.80;;;;;;8245064;28;20196;-78
2024/01/04 11:01:42;;;;;;;6.40;5.40;;;8.70;5.20;;;;;;8238324;28;20208;-78
2024/01/04 11:05:44;;;;;;;2.50;1.37;;;8.80;1.00;;;;;;8256569;28;20259;-78
2024/01/04 11:09:46;;;;;;;1.23;1.10;;;9.00;1.00;;;;;;8221976;28;20442;-77
2024/01/04 11:13:47;;;;;;;0.83;0.60;;;8.80;1.00;;;;;;8245897;28;20234;-77
2024/01/04 11:18:00;;;;;;;1.30;0.70;;;8.60;1.00;;;;;;8264199;28;20505;-76
2024/01/04 11:22:31;;;;;;;3.03;1.47;;;8.10;19.70;;;;;;8242989;28;20192;-76
2024/01/04 11:26:49;;;;;;;1.43;0.70;;;7.80;94.00;;;;;;8241694;28;20188;-77
2024/01/04 11:30:52;;;;;;;1.03;0.50;;;7.60;99.90;;;;;;8260947;28;20192;-80
2024/01/04 11:34:54;;;;;;;0.60;0.60;;;6.90;99.90;;;;;;8242606;28;20215;-80
2024/01/04 11:38:57;;;;;;;0.63;0.40;;;6.30;1.00;;;;;;8237067;28;20218;-80
2024/01/04 11:43:00;;;;;;;2.63;0.47;;;6.00;1.00;;;;;;8246170;28;20257;-81
2024/01/04 11:47:00;;;;;;;0.40;0.30;;;5.80;75.00;;;;;;8256935;28;20192;-81
2024/01/04 11:51:04;;;;;;;0.50;0.50;;;5.80;99.90;;;;;;8241678;28;20267;-79
2024/01/04 11:55:06;;;;;;;0.40;0.30;;;5.80;99.90;;;;;;8236476;28;20212;-79
2024/01/04 11:59:12;;;;;;;0.80;0.40;;;5.80;99.90;;;;;;8233302;28;20185;-79
2024/01/04 12:03:14;;;;;;;0.27;0.23;;;5.70;1.00;;;;;;8234925;28;20223;-80
2024/01/04 12:07:16;;;;;;;0.40;0.40;;;5.80;99.90;;;;;;8236080;28;20187;-83
2024/01/04 12:11:19;;;;;;;0.53;0.40;;;5.70;99.90;;;;;;8255325;28;20192;-83
2024/01/04 12:15:23;;;;;;;0.60;0.60;;;5.80;99.90;;;;;;8253927;28;20231;-82
2024/01/04 12:19:24;;;;;;;0.70;0.40;;;5.90;99.90;;;;;;8249418;28;20199;-83
2024/01/04 12:23:25;;;;;;;1.70;0.40;;;5.90;1.00;;;;;;8237205;28;20176;-83
2024/01/04 12:27:25;;;;;;;0.50;0.40;;;5.80;1.00;;;;;;8252404;28;20188;-84
2024/01/04 12:31:26;;;;;;;0.50;0.40;;;5.90;99.90;;;;;;8250131;28;20183;-83
2024/01/04 12:35:27;;;;;;;0.60;0.30;;;5.70;99.90;;;;;;8234917;28;20285;-83
2024/01/04 12:39:31;;;;;;;1.53;0.40;;;5.60;1.00;;;;;;8234690;28;20188;-83
2024/01/04 12:43:32;;;;;;;0.67;0.60;;;5.40;99.90;;;;;;8238033;28;20200;-85
2024/01/04 12:47:34;;;;;;;0.70;0.40;;;5.30;99.90;;;;;;8236313;28;20226;-82
2024/01/04 12:51:39;;;;;;;0.93;0.37;;;5.10;27.40;;;;;;8251461;28;20180;-82
2024/01/04 12:55:39;;;;;;;1.57;1.10;;;5.00;1.00;;;;;;8249776;28;20519;-83
2024/01/04 12:59:46;;;;;;;0.40;0.40;;;4.90;99.90;;;;;;8258727;28;20196;-82
2024/01/04 13:03:49;;;;;;;0.37;0.37;;;4.80;99.90;;;;;;8242175;28;20199;-83
2024/01/04 13:07:50;;;;;;;0.50;0.40;;;4.80;1.00;;;;;;8237569;28;20617;-83
2024/01/04 13:11:51;;;;;;;0.50;0.30;;;4.70;1.00;;;;;;8243753;28;20188;-81
2024/01/04 13:15:51;;;;;;;0.40;0.40;;;4.70;99.90;;;;;;8242672;28;20215;-80
2024/01/04 13:19:52;;;;;;;0.70;0.20;;;4.60;1.00;;;;;;8258907;28;20277;-79
2024/01/04 13:23:53;;;;;;;0.67;0.50;;;4.60;30.60;;;;;;8237702;28;20224;-78
2024/01/04 13:27:54;;;;;;;0.40;0.30;;;4.50;99.90;;;;;;8243473;28;20191;-80
2024/01/04 13:31:55;;;;;;;0.40;0.40;;;4.50;1.00;;;;;;8243983;28;20259;-79
2024/01/04 13:35:59;;;;;;;0.50;0.50;;;4.50;99.90;;;;;;8240207;28;20242;-79
2024/01/04 13:40:03;;;;;;;0.77;0.50;;;4.50;48.40;;;;;;8235970;28;20194;-79
2024/01/04 13:44:04;;;;;;;0.53;0.50;;;4.40;1.00;;;;;;8257842;28;20184;-80
2024/01/04 13:48:05;;;;;;;2.23;0.33;;;4.40;99.90;;;;;;8245889;28;20262;-79
2024/01/04 13:52:09;;;;;;;0.70;0.60;;;4.40;99.90;;;;;;8255206;28;20198;-78
2024/01/04 13:56:09;;;;;;;0.53;0.53;;;4.40;99.90;;;;;;8252779;28;20286;-80
2024/01/04 14:00:11;;;;;;;0.97;0.53;;;4.40;99.90;;;;;;8265176;28;20198;-80
2024/01/04 14:04:12;;;;;;;0.83;0.50;;;4.30;99.90;;;;;;8282598;28;20216;-80
2024/01/04 14:08:14;;;;;;;0.70;0.50;;;4.30;1.00;;;;;;8256237;28;20195;-81
2024/01/04 14:12:14;;;;;;;2.10;0.40;;;4.30;86.10;;;;;;8250454;28;20282;-79
2024/01/04 14:16:17;;;;;;;0.90;0.60;;;4.30;1.00;;;;;;8244410;28;20266;-80
2024/01/04 14:20:20;;;;;;;0.63;0.50;;;4.30;85.60;;;;;;8242577;28;20212;-81
2024/01/04 14:24:21;;;;;;;0.50;0.50;;;4.30;99.90;;;;;;8249208;28;20283;-80
2024/01/04 14:28:22;;;;;;;0.50;0.40;;;4.20;17.40;;;;;;8228004;28;20272;-83
2024/01/04 14:32:30;;;;;;;0.40;0.40;;;4.20;1.00;;;;;;8252084;28;20193;-83
2024/01/04 14:36:31;;;;;;;0.90;0.60;;;4.10;1.00;;;;;;8249009;28;20226;-83
2024/01/04 14:40:32;;;;;;;2.87;0.80;;;4.10;99.90;;;;;;8238203;28;20182;-82
2024/01/04 14:44:32;;;;;;;1.00;0.80;;;4.10;1.00;;;;;;8236050;28;20191;-82
2024/01/04 14:48:33;;;;;;;0.70;0.70;;;4.00;99.90;;;;;;8235982;28;20212;-83
2024/01/04 14:52:34;;;;;;;0.70;0.60;;;3.90;1.00;;;;;;8235929;28;20520;-81
2024/01/04 14:56:36;;;;;;;0.80;0.80;;;3.80;47.00;;;;;;8235754;28;20226;-83
2024/01/04 15:00:38;;;;;;;3.03;0.83;;;3.80;57.00;;;;;;8231026;28;20290;-82
2024/01/04 15:04:39;;;;;;;0.90;0.70;;;3.80;22.30;;;;;;8237149;28;20279;-82
2024/01/04 15:08:40;;;;;;;0.80;0.50;;;3.70;1.00;;;;;;8235248;28;20188;-83
2024/01/04 15:12:41;;;;;;;0.70;0.70;;;3.70;1.00;;;;;;8233435;28;20187;-81
2024/01/04 15:16:44;;;;;;;0.90;0.70;;;3.60;1.00;;;;;;8234949;28;20219;-83
2024/01/04 15:20:46;;;;;;;1.10;0.97;;;3.50;1.00;;;;;;8235546;28;20289;-83
2024/01/04 15:24:47;;;;;;;0.60;0.60;;;3.50;1.00;;;;;;8251467;28;20223;-83
2024/01/04 15:28:47;;;;;;;0.80;0.70;;;3.50;1.00;;;;;;8236065;28;20551;-83
2024/01/04 15:32:49;;;;;;;0.73;0.63;;;3.40;1.00;;;;;;8235089;28;20187;-82
2024/01/04 15:36:50;;;;;;;0.87;0.70;;;3.40;1.00;;;;;;8230808;28;20216;-79
2024/01/04 15:40:51;;;;;;;0.70;0.67;;;3.30;99.90;;;;;;8249242;28;20183;-79
2024/01/04 15:44:51;;;;;;;0.87;0.73;;;3.30;99.90;;;;;;8240773;28;20187;-80
2024/01/04 15:48:52;;;;;;;0.67;0.60;;;3.20;99.90;;;;;;8233264;28;20199;-79
2024/01/04 15:52:53;;;;;;;1.37;0.60;;;3.20;99.90;;;;;;8232024;28;20187;-80
2024/01/04 15:56:54;;;;;;;0.87;0.67;;;3.10;99.90;;;;;;8233279;28;20212;-80
2024/01/04 16:00:57;;;;;;;1.00;0.60;;;3.10;99.90;;;;;;8237855;28;20188;-79
2024/01/04 16:05:08;;;;;;;1.00;0.70;;;3.10;99.90;;;;;;8239095;28;20219;-80
2024/01/04 16:09:09;;;;;;;1.10;0.80;;;3.10;99.90;;;;;;8231085;28;20188;-78
2024/01/04 16:13:10;;;;;;;0.67;0.60;;;3.10;1.00;;;;;;8236125;28;20283;-80
2024/01/04 16:17:11;;;;;;;1.00;0.73;;;3.00;1.00;;;;;;8235468;28;20644;-79
2024/01/04 16:21:12;;;;;;;1.17;0.80;;;3.00;99.90;;;;;;8235198;28;20192;-80
2024/01/04 16:25:13;;;;;;;0.60;0.60;;;3.00;99.90;;;;;;8230892;28;20189;-79
2024/01/04 16:29:14;;;;;;;1.27;0.90;;;3.00;99.90;;;;;;8259033;28;20196;-81
2024/01/04 16:33:15;;;;;;;0.80;0.60;;;3.00;99.90;;;;;;8284581;28;20222;-79
2024/01/04 16:37:16;;;;;;;0.60;0.47;;;2.90;99.90;;;;;;8278792;28;20212;-81
2024/01/04 16:41:17;;;;;;;1.03;0.60;;;2.90;1.00;;;;;;8276386;28;20198;-80
2024/01/04 16:45:17;;;;;;;1.40;0.60;;;2.90;99.90;;;;;;8276045;28;20192;-79
2024/01/04 16:49:18;;;;;;;1.43;0.90;;;2.90;99.90;;;;;;8247294;28;20196;-80
2024/01/04 16:53:19;;;;;;;2.10;0.40;;;2.90;99.90;;;;;;8256398;28;20196;-80
2024/01/04 16:57:20;;;;;;;0.50;0.40;;;2.90;99.90;;;;;;8245297;28;20220;-79
2024/01/04 17:01:21;;;;;;;0.53;0.50;;;2.90;99.90;;;;;;8258478;28;20234;-80
2024/01/04 17:05:22;;;;;;;0.43;0.40;;;2.90;99.90;;;;;;8257790;28;20278;-80
2024/01/04 17:09:25;;;;;;;0.60;0.30;;;2.80;99.90;;;;;;8237292;28;20193;-79
2024/01/04 17:13:25;;;;;;;0.53;0.40;;;2.80;99.90;;;;;;8256437;28;20194;-78
2024/01/04 17:17:26;;;;;;;1.03;0.53;;;2.80;99.90;;;;;;8245654;28;20235;-79
2024/01/04 17:21:28;;;;;;;1.30;0.60;;;2.80;99.40;;;;;;8240901;28;20192;-81
2024/01/04 17:25:32;;;;;;;0.93;0.60;;;2.80;99.90;;;;;;8238279;28;20199;-78
2024/01/04 17:29:33;;;;;;;1.10;0.60;;;2.70;97.30;;;;;;8223773;28;20196;-80
2024/01/04 17:33:34;;;;;;;0.60;0.50;;;2.70;99.00;;;;;;8253154;28;20254;-79
2024/01/04 17:37:35;;;;;;;0.83;0.60;;;2.70;99.10;;;;;;8237270;28;20258;-79
2024/01/04 17:41:36;;;;;;;0.77;0.50;;;2.70;75.20;;;;;;8230637;28;20219;-79
2024/01/04 17:45:42;;;;;;;0.80;0.73;;;2.70;83.90;;;;;;8235736;28;20223;-79
2024/01/04 17:49:47;;;;;;;1.03;0.60;;;2.60;85.80;;;;;;8234659;28;20199;-80
2024/01/04 17:53:48;;;;;;;1.23;0.67;;;2.60;96.30;;;;;;8254660;28;20220;-80
2024/01/04 17:57:49;;;;;;;0.80;0.60;;;2.60;74.00;;;;;;8252092;28;20257;-79
2024/01/04 18:01:50;;;;;;;1.00;0.73;;;2.60;76.90;;;;;;8228637;28;20214;-79
2024/01/04 18:05:51;;;;;;;0.63;0.53;;;2.60;52.90;;;;;;8233035;28;20311;-80
2024/01/04 18:09:52;;;;;;;0.67;0.53;;;2.60;57.20;;;;;;8253656;28;20250;-79
2024/01/04 18:13:52;;;;;;;1.07;0.83;;;2.60;41.00;;;;;;8239822;28;20234;-80
2024/01/04 18:17:53;;;;;;;1.77;0.87;;;2.60;43.30;;;;;;8252536;28;20330;-81
2024/01/04 18:21:55;;;;;;;1.00;0.63;;;2.50;39.40;;;;;;8239246;28;20239;-80
2024/01/04 18:25:57;;;;;;;1.10;0.73;;;2.50;39.30;;;;;;8233648;28;20246;-79
2024/01/04 18:29:59;;;;;;;1.87;0.93;;;2.40;69.50;;;;;;8243102;28;20215;-79
2024/01/04 18:33:59;;;;;;;0.87;0.87;;;2.10;99.90;;;;;;8256525;28;20216;-80
2024/01/04 18:38:03;;;;;;;1.70;0.60;;;1.90;99.90;;;;;;8241274;28;20192;-80
2024/01/04 18:42:05;;;;;;;1.27;0.80;;;1.70;99.90;;;;;;8256944;28;20228;-80
2024/01/04 18:46:06;;;;;;;0.93;0.87;;;1.60;1.00;;;;;;8240679;28;20187;-80
2024/01/04 18:50:07;;;;;;;1.63;0.67;;;1.50;1.00;;;;;;8232519;28;20215;-79
2024/01/04 18:54:08;;;;;;;1.30;1.00;;;1.40;82.80;;;;;;8237702;28;20208;-79
2024/01/04 18:58:09;;;;;;;0.70;0.60;;;1.30;99.90;;;;;;8231636;28;20183;-78
2024/01/04 19:02:09;;;;;;;1.60;0.60;;;1.30;99.90;;;;;;8233699;28;20202;-78
2024/01/04 19:06:17;;;;;;;0.67;0.47;;;1.30;99.90;;;;;;8238725;28;20187;-78
2024/01/04 19:10:18;;;;;;;0.70;0.60;;;1.40;1.00;;;;;;8239076;28;20199;-80
2024/01/04 19:14:19;;;;;;;1.10;0.70;;;1.40;99.90;;;;;;8248444;28;20242;-78
2024/01/04 19:18:20;;;;;;;1.20;0.90;;;1.40;1.00;;;;;;8276093;28;20190;-82
2024/01/04 19:22:21;;;;;;;1.03;0.70;;;1.40;1.00;;;;;;8261090;28;20188;-82
2024/01/04 19:26:22;;;;;;;1.00;0.90;;;1.40;1.00;;;;;;8251287;28;20824;-82
2024/01/04 19:30:24;;;;;;;1.10;1.00;;;1.40;1.00;;;;;;8251398;28;20330;-83
2024/01/04 19:34:25;;;;;;;2.27;1.50;;;1.30;1.00;;;;;;8233923;28;20238;-82
2024/01/04 19:38:26;;;;;;;1.27;1.10;;;1.30;1.00;;;;;;8252132;28;20191;-82
2024/01/04 19:42:30;;;;;;;2.47;1.77;;;1.30;1.00;;;;;;8234139;28;20202;-82
2024/01/04 19:46:31;;;;;;;3.60;2.30;;;1.30;1.00;;;;;;8237600;28;20465;-82
2024/01/04 19:50:33;;;;;;;2.73;1.90;;;1.30;1.00;;;;;;8232002;28;20207;-81
2024/01/04 19:54:35;;;;;;;3.17;1.73;;;1.30;1.00;;;;;;8250136;28;20220;-81
2024/01/04 19:58:36;;;;;;;3.07;2.20;;;1.20;1.00;;;;;;8230719;28;20216;-81
2024/01/04 20:02:41;;;;;;;3.13;2.07;;;1.20;37.50;;;;;;8232511;28;20215;-82
2024/01/04 20:06:45;;;;;;;2.27;1.83;;;1.20;1.00;;;;;;8236496;28;20274;-81
2024/01/04 20:10:46;;;;;;;4.87;2.03;;;1.20;27.40;;;;;;8237733;28;20199;-81
2024/01/04 20:14:46;;;;;;;3.20;1.87;;;1.20;47.80;;;;;;8239697;28;20219;-81
2024/01/04 20:18:56;;;;;;;3.87;1.90;;;1.20;79.20;;;;;;8256945;28;20191;-81
2024/01/04 20:22:57;;;;;;;3.60;1.97;;;1.20;99.90;;;;;;8233037;28;20207;-81
2024/01/04 20:26:58;;;;;;;1.83;1.40;;;1.20;1.00;;;;;;8240591;28;20192;-82
2024/01/04 20:31:00;;;;;;;1.83;1.30;;;1.10;99.90;;;;;;8236046;28;20192;-82
2024/01/04 20:35:02;;;;;;;2.37;1.60;;;1.10;99.90;;;;;;8247177;28;20208;-81
2024/01/04 20:39:03;;;;;;;4.27;2.30;;;1.10;99.90;;;;;;8251432;28;20189;-82
2024/01/04 20:43:03;;;;;;;3.60;1.43;;;1.10;99.90;;;;;;8247095;28;20304;-82
2024/01/04 20:47:05;;;;;;;1.70;1.27;;;0.90;99.90;;;;;;8253431;28;20191;-82
2024/01/04 20:51:10;;;;;;;2.97;1.87;;;0.80;99.90;;;;;;8254505;28;20222;-83
2024/01/04 20:55:11;;;;;;;2.03;1.40;;;0.70;99.90;;;;;;8248097;28;20306;-83
2024/01/04 20:59:12;;;;;;;1.90;1.50;;;0.60;99.90;;;;;;8257730;28;20187;-82
2024/01/04 21:03:19;;;;;;;3.40;1.90;;;0.50;99.90;;;;;;8236488;28;20263;-81
2024/01/04 21:07:20;;;;;;;4.07;2.23;;;0.40;99.90;;;;;;8241844;28;20195;-81
2024/01/04 21:11:21;;;;;;;1.77;1.43;;;0.40;99.90;;;;;;8239540;28;20272;-82
2024/01/04 21:15:24;;;;;;;1.83;1.10;;;0.40;99.90;;;;;;8236905;28;20664;-82
2024/01/04 21:19:25;;;;;;;1.97;1.27;;;0.40;99.90;;;;;;8235577;28;20180;-81